Time;durP1;ratioP1;P1;durP2;ratioP2;P2;SDS_P1;SDS_P2;PMS_P1;PMS_P2;Temp;Humidity;BMP_temperature;BMP_pressure;BME280_temperature;BME280_humidity;BME280_pressure;Samples;Min_cycle;Max_cycle;Signal;HPM_P1;HPM_P2
2023/07/20 00:01:28;;;;;;;7.15;2.20;;;11.70;99.90;;;;;;4956267;29;20031;-94
2023/07/20 00:03:56;;;;;;;8.85;2.47;;;11.70;99.90;;;;;;4940140;29;20039;-92
2023/07/20 00:06:23;;;;;;;5.10;2.38;;;11.70;99.90;;;;;;4957581;28;20057;-91
2023/07/20 00:08:49;;;;;;;6.18;2.67;;;11.80;99.90;;;;;;4963118;29;20026;-94
2023/07/20 00:11:15;;;;;;;5.07;2.70;;;11.80;99.90;;;;;;4960639;29;20031;-92
2023/07/20 00:13:41;;;;;;;6.05;2.03;;;11.80;99.90;;;;;;4957643;29;20024;-94
2023/07/20 00:16:06;;;;;;;3.58;2.10;;;11.80;99.90;;;;;;4942845;29;20027;-93
2023/07/20 00:18:32;;;;;;;6.30;2.40;;;11.90;99.90;;;;;;4941779;29;20399;-94
2023/07/20 00:20:59;;;;;;;9.75;2.40;;;11.90;99.90;;;;;;4958117;29;20476;-91
2023/07/20 00:23:25;;;;;;;5.43;2.42;;;11.90;99.90;;;;;;4939989;29;20039;-93
2023/07/20 00:25:52;;;;;;;4.10;2.55;;;12.00;99.90;;;;;;4939038;29;20051;-94
2023/07/20 00:28:17;;;;;;;4.15;2.55;;;12.00;99.90;;;;;;4956176;29;20039;-94
2023/07/20 00:30:43;;;;;;;7.50;3.00;;;12.10;99.90;;;;;;4961447;29;20453;-92
2023/07/20 00:33:12;;;;;;;14.57;3.58;;;12.10;99.90;;;;;;4945973;29;20086;-92
2023/07/20 00:35:40;;;;;;;7.53;3.60;;;12.20;99.90;;;;;;4941463;29;20078;-91
2023/07/20 00:38:06;;;;;;;6.82;3.30;;;12.20;99.90;;;;;;4939557;29;20019;-93
2023/07/20 00:40:39;;;;;;;8.20;3.55;;;12.30;99.90;;;;;;4939265;29;20043;-92
2023/07/20 00:43:05;;;;;;;4.13;2.95;;;12.30;99.90;;;;;;4938529;29;20031;-94
2023/07/20 00:45:33;;;;;;;9.68;2.97;;;12.20;99.90;;;;;;4938662;29;20023;-93
2023/07/20 00:47:59;;;;;;;4.57;2.90;;;12.20;99.90;;;;;;4926142;29;20063;-93
2023/07/20 00:50:26;;;;;;;4.32;2.80;;;12.20;99.90;;;;;;4937064;29;20401;-94
2023/07/20 00:52:52;;;;;;;8.43;2.67;;;12.10;99.90;;;;;;4936676;29;20032;-94
2023/07/20 00:55:19;;;;;;;6.13;3.10;;;12.10;99.90;;;;;;4937045;29;20370;-92
2023/07/20 00:57:45;;;;;;;5.50;2.53;;;12.10;99.90;;;;;;4920202;29;20032;-95
2023/07/20 01:00:11;;;;;;;3.80;2.40;;;12.00;99.90;;;;;;4919789;29;20050;-92
2023/07/20 01:02:37;;;;;;;5.65;2.50;;;12.10;99.90;;;;;;4918262;29;20047;-94
2023/07/20 01:05:06;;;;;;;6.30;2.40;;;12.00;99.90;;;;;;4936275;29;20035;-94
2023/07/20 01:07:35;;;;;;;4.93;2.20;;;12.00;99.90;;;;;;4919544;29;20066;-92
2023/07/20 01:10:10;;;;;;;5.50;2.67;;;12.00;99.90;;;;;;4936314;29;20035;-94
2023/07/20 01:12:46;;;;;;;9.05;2.60;;;12.00;99.90;;;;;;4919428;29;20020;-93
2023/07/20 01:15:12;;;;;;;7.47;2.38;;;12.00;99.90;;;;;;4919038;29;20046;-92
2023/07/20 01:17:38;;;;;;;4.22;2.25;;;11.90;99.90;;;;;;4935881;29;20468;-93
2023/07/20 01:20:07;;;;;;;6.45;2.58;;;11.90;99.90;;;;;;4935883;29;20119;-92
2023/07/20 01:22:44;;;;;;;7.13;2.25;;;11.90;99.90;;;;;;4919473;29;20119;-94
2023/07/20 01:25:48;;;;;;;6.57;2.45;;;11.90;99.90;;;;;;4937721;29;20120;-94
2023/07/20 01:28:41;;;;;;;3.38;2.50;;;11.70;99.90;;;;;;4942133;29;20051;-89
2023/07/20 01:31:37;;;;;;;5.88;2.42;;;11.60;99.90;;;;;;4937548;29;20048;-91
2023/07/20 01:34:05;;;;;;;5.90;2.15;;;11.40;99.90;;;;;;4940340;29;20482;-94
2023/07/20 01:36:36;;;;;;;7.60;2.90;;;11.30;99.90;;;;;;4919933;29;20027;-94
2023/07/20 01:39:02;;;;;;;5.03;2.53;;;11.20;99.90;;;;;;4936291;29;20031;-95
2023/07/20 01:41:28;;;;;;;3.38;2.35;;;11.20;99.90;;;;;;4919083;29;20039;-92
2023/07/20 01:43:57;;;;;;;3.60;2.60;;;11.10;99.90;;;;;;4939338;29;20064;-93
2023/07/20 01:46:22;;;;;;;5.35;2.80;;;11.00;99.90;;;;;;4930519;29;20485;-92
2023/07/20 01:48:48;;;;;;;8.25;2.75;;;11.00;99.90;;;;;;4932371;29;20034;-93
2023/07/20 01:51:14;;;;;;;4.90;2.35;;;11.00;99.90;;;;;;4944332;29;20126;-94
2023/07/20 01:53:39;;;;;;;5.68;2.70;;;10.90;99.90;;;;;;4961256;29;20024;-87
2023/07/20 01:56:05;;;;;;;6.10;2.70;;;10.90;99.90;;;;;;4941627;29;20099;-92
2023/07/20 01:58:30;;;;;;;3.75;2.40;;;10.90;99.90;;;;;;4966707;29;20074;-91
2023/07/20 02:00:56;;;;;;;10.60;3.60;;;10.90;99.90;;;;;;4959944;29;20054;-91
2023/07/20 02:03:23;;;;;;;3.13;2.50;;;10.90;99.90;;;;;;4975765;29;20031;-88
2023/07/20 02:05:50;;;;;;;4.70;2.53;;;10.80;99.90;;;;;;4954146;29;20054;-91
2023/07/20 02:08:16;;;;;;;5.45;2.50;;;10.80;99.90;;;;;;4968674;29;20023;-94
2023/07/20 02:10:42;;;;;;;5.40;2.47;;;10.80;99.90;;;;;;4969421;29;20034;-94
2023/07/20 02:13:07;;;;;;;4.93;2.75;;;10.70;99.90;;;;;;4967809;29;20027;-92
2023/07/20 02:15:33;;;;;;;4.90;2.10;;;10.70;99.90;;;;;;4947187;29;20063;-94
2023/07/20 02:17:59;;;;;;;6.00;2.83;;;10.70;99.90;;;;;;4944116;29;20023;-95
2023/07/20 02:20:24;;;;;;;9.05;2.53;;;10.70;99.90;;;;;;4959955;29;20044;-93
2023/07/20 02:22:50;;;;;;;7.70;2.70;;;10.70;99.90;;;;;;4960307;29;20059;-92
2023/07/20 02:25:16;;;;;;;3.72;2.60;;;10.80;99.90;;;;;;4959445;29;20047;-93
2023/07/20 02:27:41;;;;;;;3.95;2.45;;;10.80;99.90;;;;;;4959757;29;20110;-91
2023/07/20 02:30:09;;;;;;;4.93;2.85;;;10.80;99.90;;;;;;4960426;29;20080;-93
2023/07/20 02:32:34;;;;;;;3.95;2.63;;;10.80;99.90;;;;;;4944143;29;20023;-93
2023/07/20 02:35:00;;;;;;;4.50;2.33;;;10.70;99.90;;;;;;4941987;29;20027;-92
2023/07/20 02:37:26;;;;;;;3.63;2.70;;;10.60;99.90;;;;;;4941414;29;20027;-92
2023/07/20 02:39:51;;;;;;;4.30;3.00;;;10.60;99.90;;;;;;4958520;29;20046;-92
2023/07/20 02:42:17;;;;;;;6.20;2.72;;;10.50;99.90;;;;;;4958546;29;20023;-93
2023/07/20 02:44:43;;;;;;;5.50;2.70;;;10.50;99.90;;;;;;4958228;29;20066;-92
2023/07/20 02:47:08;;;;;;;3.85;2.67;;;10.60;99.90;;;;;;4940851;29;20031;-93
2023/07/20 02:49:34;;;;;;;4.60;2.50;;;10.60;99.90;;;;;;4958006;29;20084;-94
2023/07/20 02:52:00;;;;;;;4.03;2.60;;;10.60;99.90;;;;;;4957858;29;20103;-94
2023/07/20 02:54:26;;;;;;;8.68;3.25;;;10.70;99.90;;;;;;4957099;28;20031;-93
2023/07/20 02:56:51;;;;;;;5.65;3.38;;;10.80;99.90;;;;;;4940812;29;20027;-93
2023/07/20 02:59:17;;;;;;;3.90;2.75;;;10.80;99.90;;;;;;4957720;29;20469;-94
2023/07/20 03:01:42;;;;;;;3.70;2.45;;;10.90;99.90;;;;;;4957316;29;20465;-95
2023/07/20 03:04:10;;;;;;;4.43;2.10;;;10.90;99.90;;;;;;4957316;29;20078;-94
2023/07/20 03:06:36;;;;;;;2.72;2.22;;;10.80;99.90;;;;;;4939558;29;20313;-93
2023/07/20 03:09:03;;;;;;;5.70;2.50;;;10.80;99.90;;;;;;4957173;29;20488;-92
2023/07/20 03:11:29;;;;;;;3.65;2.88;;;10.70;99.90;;;;;;4953518;29;20016;-90
2023/07/20 03:13:55;;;;;;;5.72;3.03;;;10.70;99.90;;;;;;4940222;29;20366;-94
2023/07/20 03:16:21;;;;;;;4.05;2.08;;;10.70;99.90;;;;;;4939856;29;20077;-92
2023/07/20 03:18:47;;;;;;;3.42;2.53;;;10.70;99.90;;;;;;4939429;29;20058;-93
2023/07/20 03:21:13;;;;;;;4.72;3.00;;;10.80;99.90;;;;;;4956783;29;20505;-92
2023/07/20 03:23:40;;;;;;;4.55;2.38;;;10.90;99.90;;;;;;4957386;29;20024;-93
2023/07/20 03:26:08;;;;;;;9.63;2.75;;;11.00;99.90;;;;;;4957017;29;20589;-92
2023/07/20 03:28:37;;;;;;;3.05;2.75;;;11.10;99.90;;;;;;4939829;29;20038;-93
2023/07/20 03:31:04;;;;;;;6.67;2.70;;;11.10;99.90;;;;;;4939883;29;20090;-94
2023/07/20 03:33:30;;;;;;;7.18;2.97;;;11.10;99.90;;;;;;4940002;29;20034;-93
2023/07/20 03:35:56;;;;;;;5.03;3.38;;;11.20;99.90;;;;;;4957429;29;20027;-92
2023/07/20 03:38:25;;;;;;;5.68;2.80;;;11.20;99.90;;;;;;4939516;29;20034;-93
2023/07/20 03:40:52;;;;;;;6.93;2.72;;;11.20;99.90;;;;;;4956695;29;20234;-94
2023/07/20 03:43:17;;;;;;;4.50;2.85;;;11.20;99.90;;;;;;4956927;29;20487;-93
2023/07/20 03:45:43;;;;;;;4.47;2.95;;;11.20;99.90;;;;;;4939309;29;20031;-95
2023/07/20 03:48:09;;;;;;;9.43;3.40;;;11.20;99.90;;;;;;4956296;29;20355;-93
2023/07/20 03:50:35;;;;;;;11.55;3.42;;;11.20;99.90;;;;;;4939555;29;20384;-93
2023/07/20 03:53:00;;;;;;;5.10;2.65;;;11.30;99.90;;;;;;4939476;29;20023;-92
2023/07/20 03:55:26;;;;;;;7.10;2.63;;;11.30;99.90;;;;;;4939505;29;20043;-92
2023/07/20 03:57:51;;;;;;;3.83;2.55;;;11.20;99.90;;;;;;4954370;29;20027;-92
2023/07/20 04:00:18;;;;;;;4.50;2.58;;;11.20;99.90;;;;;;4938747;29;20512;-92
2023/07/20 04:02:43;;;;;;;5.65;3.25;;;11.20;99.90;;;;;;4938898;29;20571;-91
2023/07/20 04:05:09;;;;;;;6.40;2.67;;;11.10;99.90;;;;;;4945980;29;20031;-92
2023/07/20 04:07:35;;;;;;;4.00;2.78;;;11.20;99.90;;;;;;4960814;28;20063;-94
2023/07/20 04:10:01;;;;;;;5.82;2.92;;;11.10;99.90;;;;;;4956557;29;20050;-93
2023/07/20 04:12:26;;;;;;;4.90;3.00;;;11.10;99.90;;;;;;4939244;29;20039;-93
2023/07/20 04:14:52;;;;;;;4.45;2.70;;;11.10;99.90;;;;;;4939321;29;20035;-95
2023/07/20 04:17:18;;;;;;;4.93;3.00;;;11.00;99.90;;;;;;4956253;29;20027;-94
2023/07/20 04:19:44;;;;;;;5.07;3.20;;;11.00;99.90;;;;;;4938897;29;20034;-93
2023/07/20 04:22:10;;;;;;;5.43;2.80;;;11.10;99.90;;;;;;4955999;29;20027;-94
2023/07/20 04:24:35;;;;;;;4.50;3.03;;;11.10;99.90;;;;;;4938882;28;20019;-94
2023/07/20 04:27:01;;;;;;;7.07;3.13;;;11.10;99.90;;;;;;4952069;29;20036;-93
2023/07/20 04:29:27;;;;;;;6.07;3.95;;;11.10;99.90;;;;;;4923699;29;20027;-94
2023/07/20 04:31:52;;;;;;;6.20;3.70;;;11.20;99.90;;;;;;4962118;29;20028;-91
2023/07/20 04:34:18;;;;;;;6.88;3.08;;;11.20;99.90;;;;;;4985234;28;20031;-92
2023/07/20 04:36:44;;;;;;;2.78;2.28;;;11.30;99.90;;;;;;4947444;29;20032;-92
2023/07/20 04:39:10;;;;;;;5.25;3.35;;;11.20;99.90;;;;;;4958422;29;20023;-93
2023/07/20 04:41:35;;;;;;;4.75;3.03;;;11.20;99.90;;;;;;4956291;29;20054;-92
2023/07/20 04:44:01;;;;;;;7.07;3.38;;;11.20;99.90;;;;;;4972335;28;20023;-93
2023/07/20 04:46:27;;;;;;;7.20;3.55;;;11.30;99.90;;;;;;4959274;29;20051;-93
2023/07/20 04:48:53;;;;;;;5.45;3.35;;;11.30;99.90;;;;;;4974748;28;20027;-91
2023/07/20 04:51:20;;;;;;;7.22;3.72;;;11.30;99.90;;;;;;4975219;29;20528;-91
2023/07/20 04:53:47;;;;;;;6.32;3.10;;;11.30;99.90;;;;;;4941674;29;20038;-89
2023/07/20 04:56:12;;;;;;;6.28;3.65;;;11.30;99.90;;;;;;4942628;29;20491;-92
2023/07/20 04:58:38;;;;;;;5.43;3.30;;;11.40;99.90;;;;;;4965550;29;20035;-91
2023/07/20 05:01:05;;;;;;;5.45;2.80;;;11.30;99.90;;;;;;4949572;29;20055;-94
2023/07/20 05:03:31;;;;;;;7.05;2.92;;;11.30;99.90;;;;;;4944851;29;20051;-93
2023/07/20 05:05:57;;;;;;;6.85;2.47;;;11.40;99.90;;;;;;4942389;29;20039;-91
2023/07/20 05:08:23;;;;;;;4.90;3.25;;;11.40;99.90;;;;;;4958224;29;20059;-94
2023/07/20 05:10:49;;;;;;;5.28;3.08;;;11.40;99.90;;;;;;4941400;29;20039;-92
2023/07/20 05:13:15;;;;;;;5.38;3.50;;;11.40;99.90;;;;;;4940648;29;20042;-93
2023/07/20 05:15:41;;;;;;;6.03;3.10;;;11.40;99.90;;;;;;4957080;29;20031;-95
2023/07/20 05:18:07;;;;;;;4.97;3.05;;;11.50;99.90;;;;;;4957556;28;20473;-93
2023/07/20 05:20:34;;;;;;;4.57;3.13;;;11.50;99.90;;;;;;4974867;28;20043;-94
2023/07/20 05:23:01;;;;;;;4.68;3.08;;;11.50;99.90;;;;;;4943147;29;20032;-90
2023/07/20 05:25:29;;;;;;;9.25;2.97;;;11.60;99.90;;;;;;4949487;28;20106;-93
2023/07/20 05:27:55;;;;;;;5.85;3.03;;;11.60;99.90;;;;;;4979288;28;20027;-93
2023/07/20 05:30:21;;;;;;;4.55;2.72;;;11.60;99.90;;;;;;4961663;28;20122;-91
2023/07/20 05:32:50;;;;;;;4.97;3.00;;;11.50;99.90;;;;;;4979404;28;20035;-92
2023/07/20 05:35:17;;;;;;;5.32;2.63;;;11.50;99.90;;;;;;4979961;28;20014;-91
2023/07/20 05:37:43;;;;;;;6.22;2.92;;;11.60;99.90;;;;;;4964535;28;20049;-94
2023/07/20 05:40:11;;;;;;;5.85;2.90;;;11.60;99.90;;;;;;4966412;28;20035;-93
2023/07/20 05:42:37;;;;;;;9.07;3.17;;;11.60;99.90;;;;;;5000415;28;20088;-90
2023/07/20 05:45:03;;;;;;;6.63;3.53;;;11.60;99.90;;;;;;5000276;28;20081;-87
2023/07/20 05:47:29;;;;;;;6.10;2.83;;;11.70;99.90;;;;;;5012684;28;20026;-91
2023/07/20 05:49:55;;;;;;;5.70;3.83;;;11.70;99.90;;;;;;4980119;28;20027;-88
2023/07/20 05:52:20;;;;;;;5.53;3.08;;;11.70;99.90;;;;;;4979044;28;20033;-92
2023/07/20 05:54:46;;;;;;;7.03;3.05;;;11.80;99.90;;;;;;4997405;28;20018;-89
2023/07/20 05:57:12;;;;;;;8.20;3.60;;;11.80;99.90;;;;;;4992564;28;20026;-92
2023/07/20 05:59:38;;;;;;;6.30;3.40;;;11.90;99.90;;;;;;4984605;28;20420;-92
2023/07/20 06:02:04;;;;;;;6.03;3.28;;;11.90;99.90;;;;;;4983605;28;20121;-94
2023/07/20 06:04:29;;;;;;;8.75;3.50;;;11.90;99.90;;;;;;5001635;28;20116;-95
2023/07/20 06:06:55;;;;;;;3.83;2.83;;;11.90;99.90;;;;;;4984469;28;20057;-92
2023/07/20 06:09:21;;;;;;;6.60;3.33;;;11.90;99.90;;;;;;4986715;28;20476;-91
2023/07/20 06:11:46;;;;;;;8.05;4.13;;;11.90;99.90;;;;;;4998072;28;20049;-92
2023/07/20 06:14:12;;;;;;;10.75;4.38;;;12.00;99.90;;;;;;4998431;28;20121;-92
2023/07/20 06:16:38;;;;;;;6.55;3.50;;;12.00;99.90;;;;;;4983628;28;20019;-92
2023/07/20 06:19:04;;;;;;;11.35;5.07;;;12.10;99.90;;;;;;4956339;28;20030;-94
2023/07/20 06:21:29;;;;;;;9.63;5.32;;;12.20;99.90;;;;;;4960352;28;20035;-93
2023/07/20 06:23:55;;;;;;;5.55;3.60;;;12.30;99.90;;;;;;4978185;28;20029;-95
2023/07/20 06:26:21;;;;;;;7.53;4.43;;;12.30;99.90;;;;;;4944718;28;20050;-92
2023/07/20 06:28:47;;;;;;;17.95;7.43;;;12.40;99.90;;;;;;4944141;28;20047;-93
2023/07/20 06:31:12;;;;;;;13.77;7.55;;;12.50;99.90;;;;;;4965111;29;20054;-91
2023/07/20 06:33:38;;;;;;;11.45;6.38;;;12.60;99.90;;;;;;4949935;29;20031;-91
2023/07/20 06:36:04;;;;;;;10.50;5.95;;;12.70;99.90;;;;;;4955408;29;20106;-94
2023/07/20 06:38:30;;;;;;;13.43;6.18;;;12.70;99.90;;;;;;4959191;29;20165;-92
2023/07/20 06:40:55;;;;;;;17.33;7.60;;;12.80;99.90;;;;;;4960412;29;20123;-94
2023/07/20 06:43:21;;;;;;;21.40;8.90;;;12.90;99.90;;;;;;4940432;29;20560;-93
2023/07/20 06:45:55;;;;;;;17.42;9.00;;;12.90;99.90;;;;;;4956730;28;20034;-93
2023/07/20 06:48:21;;;;;;;21.92;10.30;;;13.00;99.90;;;;;;4958306;29;20035;-94
2023/07/20 06:50:47;;;;;;;18.35;10.27;;;13.10;99.90;;;;;;4940978;29;20035;-92
2023/07/20 06:53:13;;;;;;;19.40;9.48;;;13.20;99.90;;;;;;4940723;29;20104;-93
2023/07/20 06:55:39;;;;;;;12.50;6.45;;;13.20;99.90;;;;;;4940094;29;20046;-92
2023/07/20 06:58:05;;;;;;;12.95;5.35;;;13.30;99.90;;;;;;4959570;28;20078;-92
2023/07/20 07:00:30;;;;;;;9.68;5.78;;;13.40;99.90;;;;;;4962175;28;20091;-94
2023/07/20 07:02:56;;;;;;;21.58;9.75;;;13.40;99.90;;;;;;4957172;28;20034;-95
2023/07/20 07:05:22;;;;;;;16.63;8.75;;;13.60;99.90;;;;;;4961220;28;20511;-91
2023/07/20 07:07:48;;;;;;;22.42;8.70;;;13.60;99.90;;;;;;4963904;28;20030;-93
2023/07/20 07:10:14;;;;;;;16.05;8.98;;;13.70;99.90;;;;;;4944538;29;20054;-93
2023/07/20 07:12:40;;;;;;;16.58;8.88;;;13.80;99.90;;;;;;4945978;29;20488;-93
2023/07/20 07:15:06;;;;;;;19.70;8.70;;;13.80;99.90;;;;;;4967693;28;20042;-93
2023/07/20 07:17:32;;;;;;;16.55;8.70;;;13.90;99.90;;;;;;4944772;29;20030;-93
2023/07/20 07:19:58;;;;;;;18.13;9.88;;;14.00;99.90;;;;;;4950959;29;20027;-93
2023/07/20 07:22:25;;;;;;;16.13;8.48;;;14.00;99.90;;;;;;4955008;29;20102;-93
2023/07/20 07:24:50;;;;;;;16.92;8.90;;;14.10;99.90;;;;;;4951464;28;20572;-93
2023/07/20 07:27:16;;;;;;;17.77;8.82;;;14.20;99.90;;;;;;4963718;28;20054;-95
2023/07/20 07:29:46;;;;;;;20.83;10.10;;;14.20;99.90;;;;;;4978455;28;20022;-94
2023/07/20 07:32:12;;;;;;;16.45;8.90;;;14.30;99.90;;;;;;4972539;28;20031;-94
2023/07/20 07:34:38;;;;;;;22.42;10.55;;;14.40;99.90;;;;;;4971833;28;20033;-91
2023/07/20 07:37:05;;;;;;;23.52;10.45;;;14.50;99.90;;;;;;4981091;28;20039;-93
2023/07/20 07:39:31;;;;;;;21.17;9.25;;;14.60;99.90;;;;;;4982069;28;20023;-94
2023/07/20 07:41:57;;;;;;;17.35;9.48;;;14.60;99.90;;;;;;4995641;28;20070;-93
2023/07/20 07:44:23;;;;;;;20.52;9.82;;;14.70;99.90;;;;;;4968703;28;20019;-91
2023/07/20 07:46:49;;;;;;;16.98;9.52;;;14.80;99.90;;;;;;4971322;28;20019;-90
2023/07/20 07:49:16;;;;;;;19.88;9.55;;;14.80;99.90;;;;;;4983712;28;20058;-91
2023/07/20 07:51:41;;;;;;;17.38;8.90;;;14.90;99.90;;;;;;4984052;28;20022;-94
2023/07/20 07:54:07;;;;;;;21.25;9.82;;;14.90;99.90;;;;;;4971275;28;20051;-93
2023/07/20 07:56:32;;;;;;;16.25;9.35;;;15.00;99.90;;;;;;4969996;28;20021;-94
2023/07/20 07:58:58;;;;;;;18.23;9.82;;;15.00;99.90;;;;;;4990589;28;20029;-94
2023/07/20 08:01:24;;;;;;;17.85;9.35;;;15.10;99.90;;;;;;4975392;28;20050;-86
2023/07/20 08:03:50;;;;;;;14.35;8.52;;;15.20;99.90;;;;;;4973446;28;20090;-91
2023/07/20 08:06:17;;;;;;;16.13;9.10;;;15.20;99.90;;;;;;4974055;28;20031;-92
2023/07/20 08:08:43;;;;;;;11.32;8.15;;;15.30;99.90;;;;;;4978765;28;20019;-86
2023/07/20 08:11:09;;;;;;;17.33;8.88;;;15.30;99.90;;;;;;4995856;28;20033;-93
2023/07/20 08:13:38;;;;;;;14.45;9.27;;;15.30;99.90;;;;;;4965200;28;20011;-91
2023/07/20 08:16:04;;;;;;;15.07;8.73;;;15.40;99.90;;;;;;4981446;28;20070;-89
2023/07/20 08:18:33;;;;;;;15.30;8.30;;;15.40;99.90;;;;;;4997622;28;20039;-87
2023/07/20 08:20:59;;;;;;;13.82;8.20;;;15.40;99.90;;;;;;4997762;28;20024;-88
2023/07/20 08:23:24;;;;;;;17.90;8.32;;;15.50;99.90;;;;;;4989907;28;20031;-92
2023/07/20 08:25:50;;;;;;;15.05;8.38;;;15.60;99.90;;;;;;4971544;28;20046;-94
2023/07/20 08:28:16;;;;;;;15.48;8.23;;;15.60;99.90;;;;;;4992799;28;20022;-94
2023/07/20 08:30:44;;;;;;;18.50;8.45;;;15.70;99.90;;;;;;4988518;28;20018;-91
2023/07/20 08:33:20;;;;;;;15.73;7.93;;;15.80;99.90;;;;;;4976726;28;20126;-95
2023/07/20 08:35:46;;;;;;;16.20;8.52;;;15.80;99.90;;;;;;4985341;28;20070;-94
2023/07/20 08:38:12;;;;;;;15.45;9.13;;;15.70;99.90;;;;;;4972669;28;20119;-95
2023/07/20 08:40:57;;;;;;;12.75;7.72;;;15.70;99.90;;;;;;4959262;28;20035;-94
2023/07/20 08:43:25;;;;;;;14.93;7.40;;;15.80;99.90;;;;;;4952281;28;20105;-94
2023/07/20 08:45:55;;;;;;;15.10;8.55;;;15.70;99.90;;;;;;4973191;28;20019;-95
2023/07/20 08:48:22;;;;;;;12.60;7.97;;;15.80;99.90;;;;;;4970017;28;20039;-95
2023/07/20 08:50:50;;;;;;;13.40;7.43;;;15.80;99.90;;;;;;4975394;28;20256;-94
2023/07/20 08:53:16;;;;;;;15.02;7.60;;;15.90;99.90;;;;;;4959753;28;20082;-93
2023/07/20 08:55:45;;;;;;;17.70;8.98;;;15.90;99.90;;;;;;4978213;28;20073;-95
2023/07/20 08:58:12;;;;;;;13.15;7.78;;;15.90;99.90;;;;;;4961936;28;20031;-95
2023/07/20 09:00:39;;;;;;;16.67;9.02;;;16.00;99.90;;;;;;4980566;28;20093;-93
2023/07/20 09:03:05;;;;;;;13.80;8.20;;;16.00;99.90;;;;;;4961183;28;20027;-93
2023/07/20 09:05:31;;;;;;;13.77;7.95;;;16.00;99.90;;;;;;4961585;28;20469;-94
2023/07/20 09:07:56;;;;;;;15.52;8.18;;;16.10;99.90;;;;;;4978698;28;20034;-94
2023/07/20 09:10:23;;;;;;;15.65;7.88;;;16.20;99.90;;;;;;4962644;28;20038;-94
2023/07/20 09:12:49;;;;;;;16.10;8.25;;;16.20;99.90;;;;;;4982208;28;20457;-94
2023/07/20 09:15:15;;;;;;;10.68;7.38;;;16.30;99.90;;;;;;4960379;28;20109;-94
2023/07/20 09:17:46;;;;;;;13.60;7.97;;;16.30;99.90;;;;;;4961332;28;20034;-94
2023/07/20 09:20:14;;;;;;;21.45;9.38;;;16.30;99.90;;;;;;4965400;28;20086;-94
2023/07/20 09:22:39;;;;;;;14.45;9.32;;;16.40;99.90;;;;;;4978135;28;20477;-95
2023/07/20 09:25:16;;;;;;;12.77;8.00;;;16.40;99.90;;;;;;4988826;28;20057;-95
2023/07/20 09:27:47;;;;;;;16.80;8.00;;;16.50;99.90;;;;;;4965850;28;20035;-94
2023/07/20 09:30:14;;;;;;;17.65;8.63;;;16.50;99.90;;;;;;4964499;28;20039;-95
2023/07/20 09:32:45;;;;;;;14.13;8.48;;;16.50;99.90;;;;;;4975646;28;20054;-93
2023/07/20 09:35:14;;;;;;;;;;;16.50;99.90;;;;;;4997185;28;20027;-92
2023/07/20 09:37:45;;;;;;;15.90;9.13;;;16.50;99.90;;;;;;4974413;28;19917;-96
2023/07/20 09:40:14;;;;;;;18.73;8.57;;;16.50;99.90;;;;;;5000251;28;20054;-88
2023/07/20 09:42:40;;;;;;;13.95;8.27;;;16.60;99.90;;;;;;5001766;28;20050;-90
2023/07/20 09:45:08;;;;;;;13.70;8.60;;;16.50;99.90;;;;;;5001096;28;20019;-85
2023/07/20 09:47:37;;;;;;;16.17;7.88;;;16.60;99.90;;;;;;4984857;28;20043;-94
2023/07/20 09:50:03;;;;;;;13.32;7.88;;;16.50;99.90;;;;;;4973720;28;20046;-92
2023/07/20 09:52:29;;;;;;;12.48;7.75;;;16.50;99.90;;;;;;4981223;28;20035;-94
2023/07/20 09:54:55;;;;;;;15.07;7.97;;;16.50;99.90;;;;;;4980052;28;20039;-92
2023/07/20 09:57:21;;;;;;;14.95;8.13;;;16.40;99.90;;;;;;4992677;28;20025;-93
2023/07/20 09:59:47;;;;;;;13.68;8.73;;;16.40;99.90;;;;;;4980906;28;20106;-95
2023/07/20 10:02:27;;;;;;;17.50;8.52;;;16.40;99.90;;;;;;4981683;28;20113;-93
2023/07/20 10:04:54;;;;;;;15.55;8.20;;;16.50;99.90;;;;;;4967970;28;20033;-94
2023/07/20 10:07:22;;;;;;;16.60;8.93;;;16.50;99.90;;;;;;4976343;28;20054;-94
2023/07/20 10:09:51;;;;;;;17.45;8.25;;;16.50;99.90;;;;;;4987701;28;20054;-95
2023/07/20 10:12:18;;;;;;;11.93;8.15;;;16.60;99.90;;;;;;4981572;28;20031;-94
2023/07/20 10:15:03;;;;;;;13.60;7.82;;;16.60;99.90;;;;;;4964311;28;20113;-94
2023/07/20 10:17:30;;;;;;;14.57;7.47;;;16.70;99.90;;;;;;4977073;28;20023;-94
2023/07/20 10:20:00;;;;;;;13.10;8.25;;;16.80;99.90;;;;;;4962227;28;20030;-93
2023/07/20 10:22:27;;;;;;;13.43;8.50;;;16.80;99.90;;;;;;4978812;28;20026;-95
2023/07/20 10:24:54;;;;;;;13.48;8.38;;;16.90;99.90;;;;;;4978265;28;20035;-94
2023/07/20 10:27:23;;;;;;;16.98;8.65;;;17.00;99.90;;;;;;4982607;28;20054;-92
2023/07/20 10:29:50;;;;;;;17.42;8.68;;;17.20;99.90;;;;;;4979240;28;20022;-95
2023/07/20 10:32:17;;;;;;;14.07;8.30;;;17.30;99.90;;;;;;4978395;28;20111;-94
2023/07/20 10:34:42;;;;;;;18.20;8.38;;;17.40;99.90;;;;;;4973290;28;20023;-93
2023/07/20 10:37:08;;;;;;;14.27;8.00;;;17.60;99.90;;;;;;4974890;28;20093;-95
2023/07/20 10:39:34;;;;;;;12.15;7.55;;;17.70;99.70;;;;;;4965832;28;20023;-94
2023/07/20 10:42:02;;;;;;;12.40;8.18;;;17.70;99.10;;;;;;4960761;28;20038;-94
2023/07/20 10:44:29;;;;;;;15.77;7.53;;;17.80;98.20;;;;;;4977724;28;20066;-93
2023/07/20 10:47:05;;;;;;;17.38;8.20;;;17.90;97.60;;;;;;4960661;28;20037;-94
2023/07/20 10:49:34;;;;;;;13.05;7.85;;;18.00;96.60;;;;;;4965820;28;20027;-93
2023/07/20 10:52:05;;;;;;;12.23;7.32;;;18.00;95.70;;;;;;4971062;28;20027;-95
2023/07/20 10:54:30;;;;;;;10.90;6.05;;;18.10;95.10;;;;;;4970962;28;20030;-93
2023/07/20 10:57:29;;;;;;;11.38;7.60;;;18.10;94.40;;;;;;4964882;28;20058;-93
2023/07/20 11:00:11;;;;;;;10.20;6.45;;;18.00;93.40;;;;;;4963117;28;20125;-93
2023/07/20 11:02:48;;;;;;;13.02;7.90;;;18.00;92.60;;;;;;4964027;28;20038;-92
2023/07/20 11:05:34;;;;;;;10.48;6.65;;;18.10;92.30;;;;;;4990324;28;20030;-91
2023/07/20 11:07:59;;;;;;;12.68;7.30;;;18.10;92.40;;;;;;4988696;28;20058;-92
2023/07/20 11:10:25;;;;;;;11.93;7.03;;;18.10;92.30;;;;;;4985290;28;20027;-94
2023/07/20 11:13:28;;;;;;;12.00;7.30;;;18.20;92.20;;;;;;4979452;28;20538;-93
2023/07/20 11:15:57;;;;;;;12.75;7.13;;;18.30;92.00;;;;;;4958324;28;20049;-95
2023/07/20 11:18:26;;;;;;;12.02;7.63;;;18.30;91.70;;;;;;4959716;28;20680;-93
2023/07/20 11:20:52;;;;;;;7.78;4.97;;;18.60;91.60;;;;;;4978206;28;20539;-95
2023/07/20 11:23:20;;;;;;;13.02;6.75;;;18.80;91.20;;;;;;4977740;28;20035;-94
2023/07/20 11:25:46;;;;;;;9.63;6.47;;;18.90;90.20;;;;;;4965600;28;20058;-93
2023/07/20 11:28:11;;;;;;;8.70;6.43;;;19.00;88.40;;;;;;4980051;28;20029;-92
2023/07/20 11:30:40;;;;;;;10.75;6.07;;;19.20;87.60;;;;;;4965574;28;20022;-96
2023/07/20 11:33:08;;;;;;;10.70;6.47;;;19.40;86.00;;;;;;4957595;28;20069;-95
2023/07/20 11:35:46;;;;;;;15.57;6.68;;;19.50;84.70;;;;;;4963969;28;20031;-94
2023/07/20 11:38:13;;;;;;;9.88;6.53;;;19.50;84.00;;;;;;4969449;28;20503;-94
2023/07/20 11:40:44;;;;;;;10.43;6.75;;;19.60;83.60;;;;;;4965941;28;20039;-93
2023/07/20 11:43:11;;;;;;;9.50;6.00;;;19.80;82.00;;;;;;4959128;28;20058;-95
2023/07/20 11:45:38;;;;;;;10.02;6.72;;;19.90;81.30;;;;;;4973614;28;20058;-95
2023/07/20 11:48:04;;;;;;;11.75;6.68;;;19.90;80.30;;;;;;4976132;28;20507;-91
2023/07/20 11:50:30;;;;;;;10.85;6.63;;;20.00;79.90;;;;;;4958737;28;20042;-91
2023/07/20 11:52:57;;;;;;;9.73;6.43;;;20.00;78.90;;;;;;4976001;28;20026;-90
2023/07/20 11:55:23;;;;;;;10.15;5.60;;;20.00;78.50;;;;;;4960177;28;20073;-91
2023/07/20 11:58:09;;;;;;;9.38;5.97;;;19.90;77.80;;;;;;4950115;29;20034;-94
2023/07/20 12:00:36;;;;;;;9.30;5.97;;;19.80;77.50;;;;;;4950753;28;20050;-91
2023/07/20 12:03:09;;;;;;;9.32;6.45;;;19.90;78.00;;;;;;4970148;28;20109;-92
2023/07/20 12:05:36;;;;;;;10.82;7.03;;;19.90;78.00;;;;;;4961265;28;20105;-95
2023/07/20 12:08:01;;;;;;;10.75;6.57;;;20.00;77.40;;;;;;4958704;28;20018;-94
2023/07/20 12:10:28;;;;;;;9.98;5.85;;;20.20;77.20;;;;;;4958237;28;20033;-94
2023/07/20 12:12:54;;;;;;;11.15;6.63;;;20.40;77.00;;;;;;4974239;28;20042;-94
2023/07/20 12:15:21;;;;;;;8.85;5.75;;;20.60;75.50;;;;;;4975599;28;20073;-94
2023/07/20 12:17:51;;;;;;;7.22;5.30;;;20.80;74.40;;;;;;4975726;28;20054;-95
2023/07/20 12:20:30;;;;;;;7.57;5.15;;;21.00;73.70;;;;;;4969579;28;20031;-95
2023/07/20 12:22:59;;;;;;;8.07;4.80;;;21.20;71.50;;;;;;4975284;28;20035;-93
2023/07/20 12:25:46;;;;;;;7.90;5.22;;;21.30;71.00;;;;;;4974958;28;20042;-94
2023/07/20 12:28:16;;;;;;;7.95;4.63;;;21.30;70.20;;;;;;4957173;28;20035;-94
2023/07/20 12:30:46;;;;;;;6.65;4.55;;;21.60;69.80;;;;;;4975354;28;20029;-95
2023/07/20 12:33:15;;;;;;;9.43;5.65;;;22.00;69.20;;;;;;4968054;28;20039;-94
2023/07/20 12:35:43;;;;;;;7.53;4.85;;;22.40;68.40;;;;;;4975279;28;20102;-94
2023/07/20 12:38:08;;;;;;;8.07;4.38;;;22.70;67.40;;;;;;4960011;28;20027;-94
2023/07/20 12:40:36;;;;;;;7.75;4.85;;;23.00;66.50;;;;;;4975736;28;20027;-94
2023/07/20 12:43:01;;;;;;;10.88;6.43;;;23.00;65.40;;;;;;4990010;28;20050;-93
2023/07/20 12:45:27;;;;;;;9.38;5.65;;;22.90;65.40;;;;;;4981460;28;20027;-95